sensor_id;sensor_type;location;lat;lon;timestamp;P1;durP1;ratioP1;P2;durP2;ratioP2
11453;SDS011;5783;55.174;61.310;2023-04-01T00:01:26;3.03;;;1.90;;
11453;SDS011;5783;55.174;61.310;2023-04-01T00:03:55;3.77;;;2.20;;
11453;SDS011;5783;55.174;61.310;2023-04-01T00:06:24;2.80;;;1.93;;
11453;SDS011;5783;55.174;61.310;2023-04-01T00:08:54;2.93;;;1.90;;
11453;SDS011;5783;55.174;61.310;2023-04-01T00:11:23;2.57;;;2.07;;
11453;SDS011;5783;55.174;61.310;2023-04-01T00:13:53;3.50;;;2.10;;
11453;SDS011;5783;55.174;61.310;2023-04-01T00:16:22;3.10;;;2.17;;
11453;SDS011;5783;55.174;61.310;2023-04-01T00:18:52;2.37;;;1.87;;
11453;SDS011;5783;55.174;61.310;2023-04-01T00:21:21;3.07;;;1.90;;
11453;SDS011;5783;55.174;61.310;2023-04-01T00:23:50;2.57;;;2.00;;
11453;SDS011;5783;55.174;61.310;2023-04-01T00:26:20;2.43;;;1.90;;
11453;SDS011;5783;55.174;61.310;2023-04-01T00:28:50;3.37;;;2.20;;
11453;SDS011;5783;55.174;61.310;2023-04-01T00:31:19;3.00;;;2.10;;
11453;SDS011;5783;55.174;61.310;2023-04-01T00:33:48;2.50;;;1.70;;
11453;SDS011;5783;55.174;61.310;2023-04-01T00:36:20;3.80;;;1.80;;
11453;SDS011;5783;55.174;61.310;2023-04-01T00:38:50;2.53;;;1.97;;
11453;SDS011;5783;55.174;61.310;2023-04-01T00:41:19;2.70;;;1.80;;
11453;SDS011;5783;55.174;61.310;2023-04-01T00:43:49;3.17;;;2.00;;
11453;SDS011;5783;55.174;61.310;2023-04-01T00:46:20;2.10;;;1.80;;
11453;SDS011;5783;55.174;61.310;2023-04-01T00:48:50;3.03;;;2.10;;
11453;SDS011;5783;55.174;61.310;2023-04-01T00:53:54;2.97;;;1.80;;
11453;SDS011;5783;55.174;61.310;2023-04-01T00:56:29;2.43;;;1.83;;
11453;SDS011;5783;55.174;61.310;2023-04-01T00:59:21;2.77;;;1.90;;
11453;SDS011;5783;55.174;61.310;2023-04-01T01:02:10;2.50;;;1.80;;
11453;SDS011;5783;55.174;61.310;2023-04-01T01:04:40;3.03;;;1.90;;
11453;SDS011;5783;55.174;61.310;2023-04-01T01:36:29;3.13;;;2.07;;
11453;SDS011;5783;55.174;61.310;2023-04-01T01:39:01;2.83;;;2.20;;
11453;SDS011;5783;55.174;61.310;2023-04-01T01:41:32;4.37;;;2.40;;
11453;SDS011;5783;55.174;61.310;2023-04-01T01:44:03;2.90;;;2.40;;
11453;SDS011;5783;55.174;61.310;2023-04-01T01:46:35;2.50;;;2.20;;
11453;SDS011;5783;55.174;61.310;2023-04-01T01:49:06;4.50;;;2.33;;
11453;SDS011;5783;55.174;61.310;2023-04-01T01:51:37;3.57;;;2.57;;
11453;SDS011;5783;55.174;61.310;2023-04-01T01:54:11;4.20;;;2.43;;
11453;SDS011;5783;55.174;61.310;2023-04-01T02:02:58;3.40;;;2.40;;
11453;SDS011;5783;55.174;61.310;2023-04-01T02:05:28;3.63;;;2.50;;
11453;SDS011;5783;55.174;61.310;2023-04-01T02:08:31;2.63;;;2.40;;
11453;SDS011;5783;55.174;61.310;2023-04-01T02:10:53;3.37;;;2.40;;
11453;SDS011;5783;55.174;61.310;2023-04-01T02:13:42;3.73;;;2.60;;
11453;SDS011;5783;55.174;61.310;2023-04-01T02:19:04;3.33;;;2.60;;
11453;SDS011;5783;55.174;61.310;2023-04-01T02:21:35;3.37;;;2.80;;
11453;SDS011;5783;55.174;61.310;2023-04-01T02:24:08;3.50;;;2.67;;
11453;SDS011;5783;55.174;61.310;2023-04-01T02:26:38;3.87;;;2.33;;
11453;SDS011;5783;55.174;61.310;2023-04-01T02:29:08;3.50;;;2.60;;
11453;SDS011;5783;55.174;61.310;2023-04-01T02:31:40;2.60;;;2.40;;
11453;SDS011;5783;55.174;61.310;2023-04-01T02:34:11;2.77;;;2.27;;
11453;SDS011;5783;55.174;61.310;2023-04-01T02:36:40;2.93;;;2.63;;
11453;SDS011;5783;55.174;61.310;2023-04-01T02:39:11;2.63;;;2.43;;
11453;SDS011;5783;55.174;61.310;2023-04-01T02:41:41;3.50;;;2.40;;
11453;SDS011;5783;55.174;61.310;2023-04-01T02:44:13;3.50;;;2.40;;
11453;SDS011;5783;55.174;61.310;2023-04-01T02:46:43;3.07;;;2.40;;
11453;SDS011;5783;55.174;61.310;2023-04-01T02:49:12;2.87;;;2.33;;
11453;SDS011;5783;55.174;61.310;2023-04-01T02:51:41;3.67;;;2.50;;
11453;SDS011;5783;55.174;61.310;2023-04-01T02:54:10;2.60;;;2.17;;
11453;SDS011;5783;55.174;61.310;2023-04-01T02:56:40;3.00;;;2.20;;
11453;SDS011;5783;55.174;61.310;2023-04-01T02:59:09;4.43;;;2.13;;
11453;SDS011;5783;55.174;61.310;2023-04-01T03:01:38;3.63;;;2.50;;
11453;SDS011;5783;55.174;61.310;2023-04-01T03:04:07;3.67;;;2.13;;
11453;SDS011;5783;55.174;61.310;2023-04-01T03:06:36;3.00;;;2.20;;
11453;SDS011;5783;55.174;61.310;2023-04-01T03:09:05;3.40;;;2.30;;
11453;SDS011;5783;55.174;61.310;2023-04-01T03:11:34;3.07;;;2.20;;
11453;SDS011;5783;55.174;61.310;2023-04-01T03:14:04;3.03;;;2.13;;
11453;SDS011;5783;55.174;61.310;2023-04-01T03:16:33;2.60;;;1.90;;
11453;SDS011;5783;55.174;61.310;2023-04-01T03:19:02;2.83;;;2.30;;
11453;SDS011;5783;55.174;61.310;2023-04-01T03:21:31;4.30;;;2.50;;
11453;SDS011;5783;55.174;61.310;2023-04-01T03:24:00;2.97;;;2.00;;
11453;SDS011;5783;55.174;61.310;2023-04-01T03:26:29;2.90;;;2.10;;
11453;SDS011;5783;55.174;61.310;2023-04-01T03:28:58;2.33;;;1.93;;
11453;SDS011;5783;55.174;61.310;2023-04-01T03:31:28;2.37;;;2.17;;
11453;SDS011;5783;55.174;61.310;2023-04-01T03:33:57;2.67;;;1.73;;
11453;SDS011;5783;55.174;61.310;2023-04-01T03:36:26;3.17;;;2.00;;
11453;SDS011;5783;55.174;61.310;2023-04-01T03:38:55;3.50;;;2.07;;
11453;SDS011;5783;55.174;61.310;2023-04-01T03:41:24;2.30;;;1.83;;
11453;SDS011;5783;55.174;61.310;2023-04-01T03:43:54;2.60;;;1.97;;
11453;SDS011;5783;55.174;61.310;2023-04-01T03:46:23;2.43;;;2.03;;
11453;SDS011;5783;55.174;61.310;2023-04-01T03:48:52;2.77;;;2.03;;
11453;SDS011;5783;55.174;61.310;2023-04-01T03:51:21;2.77;;;2.00;;
11453;SDS011;5783;55.174;61.310;2023-04-01T03:53:50;2.10;;;1.70;;
11453;SDS011;5783;55.174;61.310;2023-04-01T03:56:19;2.07;;;1.73;;
11453;SDS011;5783;55.174;61.310;2023-04-01T03:58:48;2.33;;;1.80;;
11453;SDS011;5783;55.174;61.310;2023-04-01T04:01:19;2.63;;;1.90;;
11453;SDS011;5783;55.174;61.310;2023-04-01T04:03:49;4.13;;;1.87;;
11453;SDS011;5783;55.174;61.310;2023-04-01T04:06:19;3.40;;;2.00;;
11453;SDS011;5783;55.174;61.310;2023-04-01T04:08:49;2.93;;;1.87;;
11453;SDS011;5783;55.174;61.310;2023-04-01T04:11:19;2.80;;;1.80;;
11453;SDS011;5783;55.174;61.310;2023-04-01T04:13:49;2.30;;;1.90;;
11453;SDS011;5783;55.174;61.310;2023-04-01T04:16:18;3.03;;;1.77;;
11453;SDS011;5783;55.174;61.310;2023-04-01T04:18:47;2.60;;;1.90;;
11453;SDS011;5783;55.174;61.310;2023-04-01T04:21:17;2.77;;;1.90;;
11453;SDS011;5783;55.174;61.310;2023-04-01T04:23:46;2.77;;;1.90;;
11453;SDS011;5783;55.174;61.310;2023-04-01T04:26:16;2.57;;;1.80;;
11453;SDS011;5783;55.174;61.310;2023-04-01T04:28:45;2.37;;;2.00;;
11453;SDS011;5783;55.174;61.310;2023-04-01T04:34:03;3.63;;;1.90;;
11453;SDS011;5783;55.174;61.310;2023-04-01T04:36:32;3.20;;;2.00;;
11453;SDS011;5783;55.174;61.310;2023-04-01T04:39:01;2.20;;;2.00;;
11453;SDS011;5783;55.174;61.310;2023-04-01T04:41:31;4.17;;;1.90;;
11453;SDS011;5783;55.174;61.310;2023-04-01T04:44:00;5.87;;;2.23;;
11453;SDS011;5783;55.174;61.310;2023-04-01T04:46:29;3.13;;;1.90;;
11453;SDS011;5783;55.174;61.310;2023-04-01T04:48:58;4.83;;;2.30;;
11453;SDS011;5783;55.174;61.310;2023-04-01T04:51:28;4.70;;;2.40;;
11453;SDS011;5783;55.174;61.310;2023-04-01T04:54:00;4.10;;;2.20;;
11453;SDS011;5783;55.174;61.310;2023-04-01T04:56:31;3.47;;;2.00;;
11453;SDS011;5783;55.174;61.310;2023-04-01T04:59:01;4.17;;;2.20;;
11453;SDS011;5783;55.174;61.310;2023-04-01T05:01:31;3.73;;;2.20;;
11453;SDS011;5783;55.174;61.310;2023-04-01T05:04:00;7.00;;;2.30;;
11453;SDS011;5783;55.174;61.310;2023-04-01T05:06:29;3.67;;;2.20;;
11453;SDS011;5783;55.174;61.310;2023-04-01T05:08:58;2.93;;;2.20;;
11453;SDS011;5783;55.174;61.310;2023-04-01T05:11:27;9.17;;;3.73;;
11453;SDS011;5783;55.174;61.310;2023-04-01T05:13:56;8.87;;;5.00;;
11453;SDS011;5783;55.174;61.310;2023-04-01T05:16:25;11.30;;;7.97;;
11453;SDS011;5783;55.174;61.310;2023-04-01T05:18:55;18.37;;;11.90;;
11453;SDS011;5783;55.174;61.310;2023-04-01T05:21:25;22.73;;;14.80;;
11453;SDS011;5783;55.174;61.310;2023-04-01T05:23:54;21.13;;;15.17;;
11453;SDS011;5783;55.174;61.310;2023-04-01T05:26:23;21.43;;;15.30;;
11453;SDS011;5783;55.174;61.310;2023-04-01T05:28:53;23.67;;;16.10;;
11453;SDS011;5783;55.174;61.310;2023-04-01T05:31:22;19.50;;;14.60;;
11453;SDS011;5783;55.174;61.310;2023-04-01T05:33:51;21.90;;;14.03;;
11453;SDS011;5783;55.174;61.310;2023-04-01T05:36:20;19.13;;;12.73;;
11453;SDS011;5783;55.174;61.310;2023-04-01T05:38:50;20.27;;;13.57;;
11453;SDS011;5783;55.174;61.310;2023-04-01T05:41:20;21.57;;;14.33;;
11453;SDS011;5783;55.174;61.310;2023-04-01T05:43:50;22.30;;;16.07;;
11453;SDS011;5783;55.174;61.310;2023-04-01T05:46:18;25.47;;;16.57;;
11453;SDS011;5783;55.174;61.310;2023-04-01T05:48:47;24.87;;;16.00;;
11453;SDS011;5783;55.174;61.310;2023-04-01T05:51:16;22.00;;;15.77;;
11453;SDS011;5783;55.174;61.310;2023-04-01T05:53:45;24.73;;;17.60;;
11453;SDS011;5783;55.174;61.310;2023-04-01T05:56:15;27.20;;;15.93;;
11453;SDS011;5783;55.174;61.310;2023-04-01T05:58:45;21.03;;;12.70;;
11453;SDS011;5783;55.174;61.310;2023-04-01T06:01:16;16.13;;;12.20;;
11453;SDS011;5783;55.174;61.310;2023-04-01T06:03:46;20.37;;;11.67;;
11453;SDS011;5783;55.174;61.310;2023-04-01T06:06:16;20.33;;;12.80;;
11453;SDS011;5783;55.174;61.310;2023-04-01T06:17:41;17.47;;;9.60;;
11453;SDS011;5783;55.174;61.310;2023-04-01T06:21:04;16.87;;;9.87;;
11453;SDS011;5783;55.174;61.310;2023-04-01T06:44:28;21.37;;;13.77;;
11453;SDS011;5783;55.174;61.310;2023-04-01T06:57:00;24.70;;;15.13;;
11453;SDS011;5783;55.174;61.310;2023-04-01T06:59:32;19.40;;;10.90;;
11453;SDS011;5783;55.174;61.310;2023-04-01T07:02:05;14.40;;;8.70;;
11453;SDS011;5783;55.174;61.310;2023-04-01T07:04:37;11.87;;;7.40;;
11453;SDS011;5783;55.174;61.310;2023-04-01T07:13:26;8.70;;;3.70;;
11453;SDS011;5783;55.174;61.310;2023-04-01T07:28:14;5.23;;;2.57;;
11453;SDS011;5783;55.174;61.310;2023-04-01T07:45:18;6.00;;;2.13;;
11453;SDS011;5783;55.174;61.310;2023-04-01T07:53:50;9.00;;;2.70;;
11453;SDS011;5783;55.174;61.310;2023-04-01T08:02:42;6.67;;;2.60;;
11453;SDS011;5783;55.174;61.310;2023-04-01T08:05:29;5.47;;;2.60;;
11453;SDS011;5783;55.174;61.310;2023-04-01T08:23:45;5.13;;;2.37;;
11453;SDS011;5783;55.174;61.310;2023-04-01T08:26:36;7.77;;;2.50;;
11453;SDS011;5783;55.174;61.310;2023-04-01T08:29:26;8.30;;;2.60;;
11453;SDS011;5783;55.174;61.310;2023-04-01T08:32:16;7.10;;;2.57;;
11453;SDS011;5783;55.174;61.310;2023-04-01T08:38:16;9.70;;;2.30;;
11453;SDS011;5783;55.174;61.310;2023-04-01T08:41:07;8.93;;;2.20;;
11453;SDS011;5783;55.174;61.310;2023-04-01T09:32:10;8.43;;;2.37;;
11453;SDS011;5783;55.174;61.310;2023-04-01T09:43:27;7.67;;;2.60;;
11453;SDS011;5783;55.174;61.310;2023-04-01T11:36:28;5.20;;;2.40;;
11453;SDS011;5783;55.174;61.310;2023-04-01T12:07:01;5.10;;;3.10;;
11453;SDS011;5783;55.174;61.310;2023-04-01T12:55:47;8.93;;;3.33;;
11453;SDS011;5783;55.174;61.310;2023-04-01T13:53:23;4.40;;;2.70;;
11453;SDS011;5783;55.174;61.310;2023-04-01T14:34:55;51.70;;;7.53;;
11453;SDS011;5783;55.174;61.310;2023-04-01T14:40:40;51.37;;;6.90;;
11453;SDS011;5783;55.174;61.310;2023-04-01T14:46:23;27.53;;;5.30;;
11453;SDS011;5783;55.174;61.310;2023-04-01T14:58:15;19.93;;;4.50;;
11453;SDS011;5783;55.174;61.310;2023-04-01T15:07:10;18.97;;;4.47;;
11453;SDS011;5783;55.174;61.310;2023-04-01T15:21:55;8.30;;;2.93;;
11453;SDS011;5783;55.174;61.310;2023-04-01T15:24:24;10.23;;;3.23;;
11453;SDS011;5783;55.174;61.310;2023-04-01T16:51:21;2.10;;;1.87;;
11453;SDS011;5783;55.174;61.310;2023-04-01T17:05:54;2.70;;;1.90;;
11453;SDS011;5783;55.174;61.310;2023-04-01T17:12:10;5.10;;;1.90;;
11453;SDS011;5783;55.174;61.310;2023-04-01T17:32:40;3.23;;;1.83;;
11453;SDS011;5783;55.174;61.310;2023-04-01T17:35:30;2.77;;;1.80;;
11453;SDS011;5783;55.174;61.310;2023-04-01T17:41:28;1.97;;;1.77;;
11453;SDS011;5783;55.174;61.310;2023-04-01T17:55:42;1.97;;;1.77;;
11453;SDS011;5783;55.174;61.310;2023-04-01T18:01:21;2.90;;;1.77;;
11453;SDS011;5783;55.174;61.310;2023-04-01T18:21:50;2.30;;;1.80;;
11453;SDS011;5783;55.174;61.310;2023-04-01T18:30:58;2.97;;;1.90;;
11453;SDS011;5783;55.174;61.310;2023-04-01T18:36:56;2.40;;;2.00;;
11453;SDS011;5783;55.174;61.310;2023-04-01T18:40:18;2.40;;;1.90;;
11453;SDS011;5783;55.174;61.310;2023-04-01T18:51:59;1.80;;;1.60;;
11453;SDS011;5783;55.174;61.310;2023-04-01T19:00:36;2.00;;;1.60;;
11453;SDS011;5783;55.174;61.310;2023-04-01T19:06:20;3.03;;;1.87;;
11453;SDS011;5783;55.174;61.310;2023-04-01T19:08:49;2.20;;;1.70;;
11453;SDS011;5783;55.174;61.310;2023-04-01T19:11:23;2.23;;;1.90;;
11453;SDS011;5783;55.174;61.310;2023-04-01T19:29:42;3.57;;;1.90;;
11453;SDS011;5783;55.174;61.310;2023-04-01T19:35:23;2.10;;;1.90;;
11453;SDS011;5783;55.174;61.310;2023-04-01T20:04:58;2.73;;;1.80;;
11453;SDS011;5783;55.174;61.310;2023-04-01T20:07:32;2.00;;;1.80;;
11453;SDS011;5783;55.174;61.310;2023-04-01T20:13:13;2.80;;;1.90;;
11453;SDS011;5783;55.174;61.310;2023-04-01T20:18:18;2.00;;;1.80;;
11453;SDS011;5783;55.174;61.310;2023-04-01T20:21:15;2.07;;;1.87;;
11453;SDS011;5783;55.174;61.310;2023-04-01T20:23:58;4.23;;;1.87;;
11453;SDS011;5783;55.174;61.310;2023-04-01T20:59:35;3.00;;;2.00;;
11453;SDS011;5783;55.174;61.310;2023-04-01T21:08:42;3.10;;;1.80;;
11453;SDS011;5783;55.174;61.310;2023-04-01T21:20:39;2.47;;;1.80;;
11453;SDS011;5783;55.174;61.310;2023-04-01T22:05:39;2.90;;;2.03;;
11453;SDS011;5783;55.174;61.310;2023-04-01T22:11:57;2.90;;;2.17;;
11453;SDS011;5783;55.174;61.310;2023-04-01T22:26:59;3.10;;;2.10;;
11453;SDS011;5783;55.174;61.310;2023-04-01T22:44:06;3.33;;;2.00;;
11453;SDS011;5783;55.174;61.310;2023-04-01T22:47:00;2.23;;;1.93;;
11453;SDS011;5783;55.174;61.310;2023-04-01T22:52:40;2.50;;;2.00;;
11453;SDS011;5783;55.174;61.310;2023-04-01T23:00:52;2.67;;;1.70;;
11453;SDS011;5783;55.174;61.310;2023-04-01T23:03:25;3.63;;;1.80;;
11453;SDS011;5783;55.174;61.310;2023-04-01T23:12:12;2.20;;;1.83;;
11453;SDS011;5783;55.174;61.310;2023-04-01T23:20:58;2.17;;;1.77;;
11453;SDS011;5783;55.174;61.310;2023-04-01T23:29:14;2.00;;;1.70;;
11453;SDS011;5783;55.174;61.310;2023-04-01T23:31:46;2.33;;;1.80;;
11453;SDS011;5783;55.174;61.310;2023-04-01T23:37:08;2.20;;;1.80;;
11453;SDS011;5783;55.174;61.310;2023-04-01T23:39:57;3.67;;;2.10;;
11453;SDS011;5783;55.174;61.310;2023-04-01T23:42:28;3.10;;;2.10;;
11453;SDS011;5783;55.174;61.310;2023-04-01T23:47:48;3.53;;;2.20;;
11453;SDS011;5783;55.174;61.310;2023-04-01T23:50:20;2.47;;;1.90;;
11453;SDS011;5783;55.174;61.310;2023-04-01T23:52:53;3.37;;;2.20;;
11453;SDS011;5783;55.174;61.310;2023-04-01T23:55:42;2.17;;;1.97;;
